world map with LTBT marked

LTBT - Airport

This information may not be accurate or current and is not valid for navigation or flight planning. No warranty of fitness for any purpose is made or implied.

flag of Turkey

Donate via PayPal

Additional information is available on the NEW Great Circle Mapper

Location
City:  Akhisar, Turkey
ICAO:LTBT

Details
Type:Airport (Aerodrome, Airfield)
Use:Military
Latitude:38°48'32"N (38.808887)
Longitude:27°50'02"E (27.833860)
Datum:WGS 1984
Elevation:263 ft (80 m)
Runways:2
Longest:9815 × 148 ft (2992 × 45 m)

Time
Timezone:UTC+3 (DST+5)
Local Time:

Weather
METAR:LTBT  041350Z VRB02KT 9999 SCT035 BKN100 17/08 Q1019 RMK RWY13 00000KT

Related Locations
Nearby:
Farthest:RVV: 11369 mi / 18297 km
Raivavae, Tubuai Islands, Austral Islands, PF

Find:

   beyond  
but within

Other Information
Maps:
Sources:

  


 


Great Circle Mapper   Great Circle Mapper
Great Circle Mapper FAQ   Great Circle Mapper FAQ
  Karl's Home Page
KLSē   KLSē Home
   GC on Facebook
Airlines of the World   Airlines of the World
Donate via PayPal


Copyright © 2004-2019, Karl L. Swartz. All rights reserved.
All trademarks mentioned herein belong to their respective owners.

Please see credits for attribution and copyright information.

Karl Swartz <karl@kls2.com>
  Powered by FreeBSD
Valid HTML 4.01!
Labeled with ICRA
hCard Microformat
Geo Microformat